Time;durP1;ratioP1;P1;durP2;ratioP2;P2;SDS_P1;SDS_P2;PMS_P1;PMS_P2;Temp;Humidity;BMP_temperature;BMP_pressure;BME280_temperature;BME280_humidity;BME280_pressure;Samples;Min_cycle;Max_cycle;Signal;HPM_P1;HPM_P2
2022/05/25 04:06:54;;;;;;;11.80;10.53;;;12.20;99.90;;;;;;4986515;28;20218;-75
2022/05/25 04:09:22;;;;;;;12.97;11.53;;;12.30;99.90;;;;;;4992793;28;20257;-77
2022/05/25 04:11:51;;;;;;;15.10;12.63;;;12.30;99.90;;;;;;4996739;28;20241;-77
2022/05/25 04:14:19;;;;;;;16.53;12.60;;;12.30;99.90;;;;;;4996050;28;20275;-78
2022/05/25 04:16:47;;;;;;;16.43;12.90;;;12.40;99.90;;;;;;4995881;28;20702;-78
2022/05/25 04:19:16;;;;;;;17.00;13.80;;;12.40;99.90;;;;;;4996205;28;20217;-78
2022/05/25 04:21:45;;;;;;;17.53;15.13;;;12.40;99.90;;;;;;4995962;28;20233;-76
2022/05/25 04:24:16;;;;;;;14.97;12.70;;;12.40;99.90;;;;;;4995308;28;20603;-79
2022/05/25 04:26:44;;;;;;;15.33;12.60;;;12.40;99.90;;;;;;4994384;28;20206;-77
2022/05/25 04:29:12;;;;;;;13.27;11.93;;;12.50;99.90;;;;;;4994850;28;20242;-77
2022/05/25 04:31:40;;;;;;;15.13;12.80;;;12.50;99.90;;;;;;4995510;28;20667;-79
2022/05/25 04:34:11;;;;;;;13.77;12.27;;;12.50;99.90;;;;;;4994987;28;20308;-78
2022/05/25 04:36:40;;;;;;;13.03;11.60;;;12.50;99.90;;;;;;4995098;28;20238;-80
2022/05/25 04:39:08;;;;;;;12.00;10.90;;;12.50;99.90;;;;;;4995407;28;20245;-78
2022/05/25 04:41:38;;;;;;;13.13;11.23;;;12.50;99.90;;;;;;4995776;28;20217;-77
2022/05/25 04:44:06;;;;;;;12.23;10.93;;;12.60;99.90;;;;;;4994810;28;20218;-76
2022/05/25 04:46:35;;;;;;;11.13;9.73;;;12.60;99.90;;;;;;4978889;28;20211;-78
2022/05/25 04:49:03;;;;;;;15.67;10.67;;;12.60;99.90;;;;;;4976822;28;20565;-78
2022/05/25 04:51:31;;;;;;;11.27;10.00;;;12.60;99.90;;;;;;4976161;28;20223;-79
2022/05/25 04:53:59;;;;;;;11.43;9.73;;;12.60;99.90;;;;;;4974583;28;20246;-77
2022/05/25 04:59:14;;;;;;;14.70;10.13;;;12.60;99.90;;;;;;4975501;28;20290;-78
2022/05/25 05:01:42;;;;;;;12.20;10.13;;;12.60;99.90;;;;;;4974924;28;20290;-78
2022/05/25 05:04:10;;;;;;;10.83;9.73;;;12.60;99.90;;;;;;4975731;28;20649;-78
2022/05/25 05:06:38;;;;;;;12.33;10.07;;;12.60;99.90;;;;;;4975290;28;20226;-79
2022/05/25 05:09:07;;;;;;;13.20;10.20;;;12.60;99.90;;;;;;4974943;28;20695;-79
2022/05/25 05:11:37;;;;;;;11.43;10.03;;;12.60;99.90;;;;;;4975610;28;20755;-79
2022/05/25 05:14:05;;;;;;;11.33;10.20;;;12.60;99.90;;;;;;4976103;28;20211;-79
2022/05/25 05:16:34;;;;;;;10.93;9.70;;;12.70;99.90;;;;;;4975958;28;20211;-77
2022/05/25 05:19:02;;;;;;;10.90;9.80;;;12.70;99.90;;;;;;4975436;28;20768;-76
2022/05/25 05:21:30;;;;;;;11.23;9.77;;;12.70;99.90;;;;;;4975869;28;20258;-79
2022/05/25 05:23:58;;;;;;;12.23;9.33;;;12.70;99.90;;;;;;4975530;28;20673;-78
2022/05/25 05:26:26;;;;;;;11.70;10.43;;;12.80;99.90;;;;;;4975919;28;20400;-78
2022/05/25 05:28:55;;;;;;;11.87;9.93;;;12.70;99.90;;;;;;4975369;28;20293;-79
2022/05/25 05:31:22;;;;;;;11.90;10.67;;;12.70;99.90;;;;;;4975581;28;20242;-78
2022/05/25 05:33:53;;;;;;;12.73;10.93;;;12.70;99.90;;;;;;4975485;28;20219;-79
2022/05/25 05:36:25;;;;;;;14.23;10.57;;;12.70;99.90;;;;;;4975969;28;20403;-78
2022/05/25 05:38:59;;;;;;;11.10;10.00;;;12.70;99.90;;;;;;4975748;28;20297;-78
2022/05/25 05:41:30;;;;;;;11.97;10.13;;;12.70;99.90;;;;;;4976348;28;20643;-78
2022/05/25 05:43:59;;;;;;;10.73;9.63;;;12.60;99.90;;;;;;4977880;28;20261;-77
2022/05/25 05:46:28;;;;;;;12.80;9.70;;;12.60;99.90;;;;;;4985599;28;20610;-78
2022/05/25 05:48:58;;;;;;;12.13;10.03;;;12.70;99.90;;;;;;4984481;28;20219;-78
2022/05/25 05:51:26;;;;;;;10.73;9.60;;;12.70;99.90;;;;;;4986323;28;20234;-77
2022/05/25 05:53:54;;;;;;;11.70;9.00;;;12.70;99.90;;;;;;4977504;28;20241;-79
2022/05/25 05:56:22;;;;;;;12.23;8.70;;;12.70;99.90;;;;;;4976170;28;20289;-76
2022/05/25 05:58:53;;;;;;;11.17;9.07;;;12.60;99.90;;;;;;4975429;28;20238;-76
2022/05/25 06:01:21;;;;;;;10.13;9.13;;;12.70;99.90;;;;;;4975611;28;20254;-78
2022/05/25 06:03:49;;;;;;;10.40;9.20;;;12.70;99.90;;;;;;4974461;28;20211;-79
2022/05/25 06:06:19;;;;;;;13.23;8.17;;;12.70;99.90;;;;;;4974864;28;20250;-77
2022/05/25 06:08:47;;;;;;;10.07;8.53;;;12.70;99.90;;;;;;4975395;28;20262;-77
2022/05/25 06:11:17;;;;;;;11.00;9.13;;;12.70;99.90;;;;;;4975261;28;20646;-78
2022/05/25 06:13:45;;;;;;;10.50;8.80;;;12.70;99.90;;;;;;4974911;28;20211;-79
2022/05/25 06:21:47;;;;;;;12.40;8.77;;;12.70;99.90;;;;;;4974209;28;20783;-78
2022/05/25 06:24:15;;;;;;;10.20;8.43;;;12.70;99.90;;;;;;4974424;28;20210;-77
2022/05/25 06:26:43;;;;;;;15.80;8.30;;;12.70;99.90;;;;;;4974835;28;20294;-79
2022/05/25 06:29:16;;;;;;;11.37;8.67;;;12.70;99.90;;;;;;4974760;28;20301;-78
2022/05/25 06:31:44;;;;;;;9.13;7.30;;;12.70;99.90;;;;;;4974967;28;20651;-78
2022/05/25 06:34:13;;;;;;;8.13;6.80;;;12.80;99.90;;;;;;4976380;28;20286;-79
2022/05/25 06:36:41;;;;;;;7.37;5.73;;;12.80;99.90;;;;;;4975497;28;20357;-79
2022/05/25 06:39:11;;;;;;;8.60;5.93;;;12.70;99.90;;;;;;4975342;28;20318;-79
2022/05/25 06:41:39;;;;;;;6.13;5.63;;;12.70;99.90;;;;;;4980113;28;20219;-78
2022/05/25 06:44:07;;;;;;;7.47;5.20;;;12.70;99.90;;;;;;4979742;28;20238;-76
2022/05/25 06:46:35;;;;;;;7.87;5.00;;;12.70;99.90;;;;;;4976676;28;20302;-76
2022/05/25 06:49:03;;;;;;;6.47;5.20;;;12.60;99.90;;;;;;4974658;28;20673;-78
2022/05/25 06:51:33;;;;;;;8.13;4.97;;;12.70;99.90;;;;;;4974531;28;20269;-77
2022/05/25 06:54:07;;;;;;;5.47;4.50;;;12.80;99.90;;;;;;4974539;28;20194;-77
2022/05/25 06:56:37;;;;;;;4.17;3.70;;;12.90;99.90;;;;;;4974387;28;20207;-76
2022/05/25 06:59:05;;;;;;;4.03;3.60;;;12.90;99.90;;;;;;4973850;28;20265;-78
2022/05/25 07:01:33;;;;;;;3.60;3.07;;;13.00;99.90;;;;;;4973663;28;20206;-78
2022/05/25 07:04:02;;;;;;;3.10;2.90;;;13.00;99.90;;;;;;4974240;28;20700;-79
2022/05/25 07:06:30;;;;;;;4.90;3.20;;;13.00;99.90;;;;;;4973756;28;20223;-78
2022/05/25 07:08:58;;;;;;;4.23;3.17;;;13.00;99.90;;;;;;4974173;28;20242;-77
2022/05/25 07:11:26;;;;;;;5.10;3.20;;;13.20;99.90;;;;;;4973772;28;20717;-78
2022/05/25 07:13:57;;;;;;;4.83;2.50;;;13.30;99.90;;;;;;4974392;28;20245;-78
2022/05/25 07:16:26;;;;;;;4.57;2.50;;;13.20;99.90;;;;;;4974471;28;20195;-79
2022/05/25 07:18:54;;;;;;;3.17;2.87;;;13.40;99.90;;;;;;4973633;28;20269;-77
2022/05/25 07:21:26;;;;;;;2.53;2.33;;;13.50;99.90;;;;;;4974019;28;20207;-76
2022/05/25 07:23:55;;;;;;;3.93;2.80;;;13.60;99.90;;;;;;4973668;28;20257;-79
2022/05/25 07:26:25;;;;;;;2.80;2.40;;;13.70;99.90;;;;;;4974016;28;20221;-76
2022/05/25 07:28:53;;;;;;;2.73;2.40;;;13.90;99.90;;;;;;4973511;28;20278;-76
2022/05/25 07:31:27;;;;;;;3.07;2.60;;;14.10;99.90;;;;;;4973623;28;20231;-79
2022/05/25 07:34:01;;;;;;;3.00;2.60;;;14.20;99.90;;;;;;4973885;28;20574;-76
2022/05/25 07:36:31;;;;;;;2.47;2.27;;;14.20;99.90;;;;;;4974051;28;20260;-78
2022/05/25 07:39:03;;;;;;;2.77;2.57;;;14.30;99.90;;;;;;4973109;28;20471;-79
2022/05/25 07:41:35;;;;;;;5.63;2.77;;;14.30;99.90;;;;;;4973333;28;20241;-79
2022/05/25 07:44:04;;;;;;;4.97;2.87;;;14.40;99.90;;;;;;4973808;28;20218;-77
2022/05/25 07:46:35;;;;;;;3.40;2.80;;;14.50;99.90;;;;;;4973484;28;20335;-78
2022/05/25 07:49:03;;;;;;;3.17;2.87;;;14.60;99.90;;;;;;4973345;28;20203;-78
2022/05/25 07:51:32;;;;;;;3.57;2.40;;;14.70;99.90;;;;;;4973058;28;20665;-78
2022/05/25 07:54:03;;;;;;;2.50;2.30;;;14.70;99.90;;;;;;4973546;28;20580;-75
2022/05/25 07:56:34;;;;;;;2.63;2.10;;;14.80;99.90;;;;;;4973721;28;20291;-75
2022/05/25 07:59:03;;;;;;;3.13;1.90;;;14.70;99.90;;;;;;4973234;28;20545;-75
2022/05/25 08:07:13;;;;;;;4.40;2.43;;;14.70;99.90;;;;;;4973605;28;20639;-78
2022/05/25 08:09:40;;;;;;;4.00;2.97;;;14.60;99.90;;;;;;4973347;28;20242;-76
2022/05/25 08:12:10;;;;;;;2.93;2.60;;;14.50;99.90;;;;;;4976622;28;20271;-76
2022/05/25 08:14:38;;;;;;;3.00;2.70;;;14.60;99.90;;;;;;4992814;28;20210;-79
2022/05/25 08:17:08;;;;;;;4.20;3.10;;;14.50;99.90;;;;;;4992869;28;20569;-76
2022/05/25 08:19:38;;;;;;;4.07;3.03;;;14.40;99.90;;;;;;4992325;28;20276;-78
2022/05/25 08:22:07;;;;;;;4.40;2.80;;;14.50;99.90;;;;;;4992439;28;20282;-76
2022/05/25 08:24:35;;;;;;;3.57;2.80;;;14.50;99.90;;;;;;4992812;28;20230;-76
2022/05/25 08:27:05;;;;;;;3.33;2.93;;;14.60;99.90;;;;;;4992453;28;20707;-79
2022/05/25 08:29:34;;;;;;;3.97;2.60;;;14.70;99.90;;;;;;4992440;28;20690;-78
2022/05/25 08:32:02;;;;;;;2.97;2.37;;;14.70;99.90;;;;;;4992741;28;20230;-77
2022/05/25 08:34:33;;;;;;;2.53;2.17;;;14.90;99.90;;;;;;4992671;28;20218;-78
2022/05/25 08:37:05;;;;;;;3.13;2.20;;;14.90;99.90;;;;;;4992393;28;20249;-78
2022/05/25 08:39:33;;;;;;;3.10;2.00;;;15.10;99.90;;;;;;4992661;28;20280;-75
2022/05/25 08:42:06;;;;;;;3.50;2.20;;;15.40;99.90;;;;;;4992507;28;20210;-78
2022/05/25 08:44:36;;;;;;;2.37;2.00;;;15.50;99.90;;;;;;4995146;28;20218;-76
2022/05/25 08:47:06;;;;;;;2.63;2.40;;;15.70;99.90;;;;;;4996082;28;20214;-75
2022/05/25 08:49:37;;;;;;;3.83;2.10;;;16.20;99.90;;;;;;4996005;28;20209;-76
2022/05/25 08:52:16;;;;;;;2.40;1.87;;;17.00;99.90;;;;;;4996286;28;20223;-74
2022/05/25 08:54:45;;;;;;;2.60;1.93;;;17.90;99.90;;;;;;4995954;28;20220;-77
2022/05/25 08:57:25;;;;;;;1.90;1.80;;;18.40;99.90;;;;;;4996711;28;20198;-75
2022/05/25 08:59:59;;;;;;;2.67;1.77;;;18.40;99.90;;;;;;4995909;28;20262;-75
2022/05/25 09:02:34;;;;;;;3.73;1.90;;;18.40;99.90;;;;;;4996366;28;20190;-75
2022/05/25 09:05:16;;;;;;;3.07;1.77;;;18.00;99.90;;;;;;4996317;28;20225;-77
2022/05/25 09:07:51;;;;;;;3.53;1.80;;;18.10;99.90;;;;;;4996506;28;20293;-77
2022/05/25 09:10:21;;;;;;;1.90;1.63;;;17.80;99.90;;;;;;4995880;28;20201;-77
2022/05/25 09:12:53;;;;;;;1.60;1.50;;;18.00;99.90;;;;;;4996233;28;20670;-78
2022/05/25 09:15:28;;;;;;;2.50;1.53;;;18.70;99.90;;;;;;4995768;28;20289;-75
2022/05/25 09:18:02;;;;;;;2.63;1.20;;;19.20;99.90;;;;;;4996174;28;20601;-76
2022/05/25 09:20:36;;;;;;;2.27;1.50;;;19.50;99.90;;;;;;4996488;28;20289;-76
2022/05/25 09:23:04;;;;;;;2.50;1.80;;;19.50;99.90;;;;;;4996533;28;20300;-76
2022/05/25 09:25:34;;;;;;;1.63;1.50;;;19.10;99.90;;;;;;4995952;28;20244;-78
2022/05/25 09:28:07;;;;;;;2.03;1.60;;;18.70;99.90;;;;;;4995604;28;20209;-75
2022/05/25 09:30:39;;;;;;;1.30;1.20;;;18.80;99.90;;;;;;4995925;28;20333;-77
2022/05/25 09:33:15;;;;;;;1.83;1.20;;;18.50;99.90;;;;;;4996218;28;20248;-80
2022/05/25 09:35:48;;;;;;;3.77;0.93;;;18.30;99.90;;;;;;4996173;28;20297;-78
2022/05/25 09:38:29;;;;;;;2.17;1.00;;;18.10;99.90;;;;;;4995948;28;20238;-78
2022/05/25 09:41:05;;;;;;;1.80;0.87;;;18.10;99.90;;;;;;4996098;28;20281;-77
2022/05/25 09:43:35;;;;;;;1.83;0.90;;;18.00;99.90;;;;;;4996728;28;20269;-76
2022/05/25 09:46:12;;;;;;;2.33;1.00;;;17.90;99.90;;;;;;4996410;28;20576;-78
2022/05/25 09:48:48;;;;;;;1.70;0.83;;;17.80;99.90;;;;;;4995170;28;20224;-78
2022/05/25 09:51:25;;;;;;;2.10;1.00;;;17.70;99.90;;;;;;4996079;28;20656;-78
2022/05/25 09:53:55;;;;;;;1.17;0.80;;;17.90;99.90;;;;;;4995753;28;20695;-77
2022/05/25 09:56:30;;;;;;;1.27;1.03;;;18.20;99.90;;;;;;4995673;28;20754;-78
2022/05/25 09:59:02;;;;;;;3.47;1.13;;;18.10;99.90;;;;;;4994680;28;20257;-78
2022/05/25 10:01:34;;;;;;;2.30;1.10;;;18.00;99.90;;;;;;4995046;28;20222;-78
2022/05/25 10:04:04;;;;;;;2.90;1.20;;;18.10;99.90;;;;;;4996380;28;20187;-79
2022/05/25 10:06:49;;;;;;;2.13;1.10;;;18.10;99.90;;;;;;4998659;28;20238;-78
2022/05/25 10:09:23;;;;;;;3.10;1.20;;;18.20;99.90;;;;;;4996708;28;20640;-78
2022/05/25 10:11:53;;;;;;;2.10;1.23;;;18.10;99.90;;;;;;4996372;28;20244;-80
2022/05/25 10:14:28;;;;;;;2.50;1.33;;;18.00;99.90;;;;;;4994911;28;20581;-79
2022/05/25 10:16:58;;;;;;;3.70;1.30;;;17.90;99.90;;;;;;4997498;28;20214;-79
2022/05/25 10:19:26;;;;;;;1.63;1.20;;;17.80;99.90;;;;;;5000142;28;20844;-79
2022/05/25 10:21:58;;;;;;;1.70;1.30;;;17.90;99.90;;;;;;4998139;28;20609;-77
2022/05/25 10:24:30;;;;;;;2.77;1.20;;;18.00;99.90;;;;;;4999052;28;20581;-80
2022/05/25 10:27:01;;;;;;;4.80;1.40;;;18.20;99.90;;;;;;4997966;28;20268;-78
2022/05/25 10:38:14;;;;;;;1.30;1.20;;;18.60;99.90;;;;;;4996232;28;20312;-80
2022/05/25 10:40:45;;;;;;;3.93;1.27;;;18.70;99.90;;;;;;4998604;28;20226;-80
2022/05/25 10:43:25;;;;;;;1.33;0.97;;;18.90;99.90;;;;;;4995798;28;20190;-79
2022/05/25 10:45:55;;;;;;;1.97;1.00;;;19.20;99.90;;;;;;4995156;28;20207;-79
2022/05/25 10:48:38;;;;;;;2.07;1.20;;;19.70;99.90;;;;;;4995136;28;20249;-79
2022/05/25 10:51:10;;;;;;;2.30;1.30;;;20.10;99.90;;;;;;4979931;28;20634;-80
2022/05/25 10:54:44;;;;;;;1.37;1.10;;;21.20;99.90;;;;;;4995734;28;20879;-78
2022/05/25 10:56:45;;;;;;;1.17;0.90;;;21.60;99.90;;;;;;4994486;28;20241;-79
2022/05/25 10:59:23;;;;;;;1.80;0.90;;;21.40;99.90;;;;;;4995474;28;20288;-79
2022/05/25 11:02:17;;;;;;;2.27;1.13;;;21.70;99.90;;;;;;4994893;28;20542;-77
2022/05/25 11:05:13;;;;;;;2.93;1.20;;;21.40;99.90;;;;;;4997840;28;20252;-75
2022/05/25 11:07:42;;;;;;;1.27;1.00;;;21.70;99.90;;;;;;4996200;28;20236;-75
2022/05/25 11:10:43;;;;;;;1.20;1.07;;;22.00;99.90;;;;;;4999300;28;20245;-75
2022/05/25 11:13:42;;;;;;;1.07;0.87;;;22.20;99.90;;;;;;5002878;28;20202;-79
2022/05/25 11:16:24;;;;;;;1.33;0.90;;;22.60;99.90;;;;;;5002223;28;20190;-75
2022/05/25 11:19:09;;;;;;;3.13;0.93;;;23.10;99.90;;;;;;4996791;28;20202;-77
2022/05/25 11:21:45;;;;;;;2.67;0.80;;;23.20;99.90;;;;;;5000378;28;20202;-77
2022/05/25 11:24:27;;;;;;;3.97;1.30;;;23.70;99.90;;;;;;4995280;28;20201;-76
2022/05/25 11:27:07;;;;;;;2.63;1.30;;;23.80;99.90;;;;;;4994913;28;20230;-79
2022/05/25 11:30:01;;;;;;;3.67;1.02;;;23.80;99.90;;;;;;4995961;28;20246;-77
2022/05/25 11:32:38;;;;;;;2.75;1.10;;;23.50;99.90;;;;;;4996649;28;20214;-75
2022/05/25 11:35:21;;;;;;;2.17;1.30;;;22.50;99.90;;;;;;4994848;28;20198;-78
2022/05/25 11:38:17;;;;;;;1.97;1.10;;;22.10;99.90;;;;;;4995815;28;20204;-80
2022/05/25 11:41:01;;;;;;;3.13;1.10;;;22.60;99.90;;;;;;4994427;28;20278;-78
2022/05/25 11:44:05;;;;;;;1.57;1.10;;;23.00;99.90;;;;;;4994015;28;20206;-77
2022/05/25 11:46:42;;;;;;;2.97;1.33;;;22.80;99.90;;;;;;4997144;28;20625;-79
2022/05/25 11:49:54;;;;;;;3.60;1.13;;;22.70;99.90;;;;;;4994421;28;20233;-77
2022/05/25 11:52:54;;;;;;;2.33;1.10;;;22.40;99.90;;;;;;4992711;28;20210;-78
2022/05/25 11:55:28;;;;;;;1.87;1.10;;;22.50;99.90;;;;;;4994635;28;20406;-78
2022/05/25 11:58:04;;;;;;;1.33;1.00;;;22.50;99.90;;;;;;4992729;28;20229;-75
2022/05/25 12:00:49;;;;;;;1.83;0.90;;;22.50;99.90;;;;;;4992996;28;20229;-78
2022/05/25 12:03:47;;;;;;;1.43;0.80;;;22.30;99.90;;;;;;4993106;28;20245;-77
2022/05/25 12:06:48;;;;;;;1.53;0.80;;;22.30;99.90;;;;;;4986031;28;20569;-79
2022/05/25 12:09:33;;;;;;;2.00;1.00;;;22.30;99.90;;;;;;4992569;28;20233;-79
2022/05/25 12:12:09;;;;;;;2.60;0.77;;;22.20;99.90;;;;;;4993229;28;20276;-79
2022/05/25 12:14:54;;;;;;;1.50;0.80;;;22.10;99.90;;;;;;4992553;28;20615;-76
2022/05/25 12:17:32;;;;;;;1.63;0.80;;;21.90;99.90;;;;;;4992908;28;20288;-76
2022/05/25 12:20:05;;;;;;;1.03;0.67;;;22.20;99.90;;;;;;4996556;28;20220;-80
2022/05/25 12:22:35;;;;;;;5.60;2.93;;;22.30;99.90;;;;;;4997217;28;20195;-80
2022/05/25 12:25:08;;;;;;;3.07;2.00;;;22.30;99.90;;;;;;4996146;28;20305;-79
2022/05/25 12:27:43;;;;;;;1.73;0.97;;;21.80;99.90;;;;;;4995664;28;20297;-77
2022/05/25 12:30:16;;;;;;;1.37;0.93;;;21.50;99.90;;;;;;4995526;28;20636;-79
2022/05/25 12:32:46;;;;;;;2.50;1.10;;;21.20;99.90;;;;;;4995610;28;20598;-80
2022/05/25 12:35:16;;;;;;;1.43;1.00;;;21.20;99.90;;;;;;4995342;28;20270;-77
2022/05/25 12:37:49;;;;;;;3.07;1.00;;;21.30;99.90;;;;;;4995731;28;20218;-78
2022/05/25 12:40:41;;;;;;;2.07;0.90;;;21.00;99.90;;;;;;4995349;28;20222;-78
2022/05/25 12:43:42;;;;;;;1.17;0.70;;;20.80;99.90;;;;;;4995809;28;20278;-79
2022/05/25 12:49:02;;;;;;;1.73;0.80;;;20.70;99.90;;;;;;4995221;28;20693;-79
2022/05/25 12:51:38;;;;;;;1.60;0.87;;;20.60;99.90;;;;;;4995375;28;20285;-78
2022/05/25 12:54:20;;;;;;;1.47;0.90;;;20.50;99.90;;;;;;4995578;28;20218;-79
2022/05/25 12:56:50;;;;;;;0.70;0.70;;;20.50;99.90;;;;;;4995829;28;20226;-79
2022/05/25 12:59:32;;;;;;;1.03;0.70;;;20.20;99.90;;;;;;4995611;28;20249;-80
2022/05/25 13:02:24;;;;;;;1.10;0.57;;;20.30;99.90;;;;;;4995436;28;20242;-77
2022/05/25 13:04:55;;;;;;;2.07;0.73;;;20.30;99.90;;;;;;4994380;28;20692;-79
2022/05/25 13:07:44;;;;;;;1.60;0.97;;;20.00;99.90;;;;;;4994749;28;20202;-79
2022/05/25 13:10:22;;;;;;;1.37;0.90;;;20.00;99.90;;;;;;4995190;28;20297;-78
2022/05/25 13:12:56;;;;;;;1.70;0.90;;;19.90;99.90;;;;;;4995197;28;20656;-75
2022/05/25 13:15:40;;;;;;;1.77;0.90;;;19.70;99.90;;;;;;4995474;28;20276;-80
2022/05/25 13:18:09;;;;;;;0.87;0.80;;;19.90;99.90;;;;;;5009139;28;20258;-79
2022/05/25 13:21:03;;;;;;;1.37;0.90;;;20.10;99.90;;;;;;5009144;28;20313;-79
2022/05/25 13:24:08;;;;;;;1.47;1.00;;;20.10;99.90;;;;;;4995246;28;20292;-77
2022/05/25 13:26:59;;;;;;;2.03;1.20;;;19.90;99.90;;;;;;4994783;28;20300;-78
2022/05/25 13:29:36;;;;;;;2.57;0.97;;;20.10;99.90;;;;;;4994594;28;20226;-77
2022/05/25 13:32:12;;;;;;;1.03;0.63;;;20.30;99.90;;;;;;4995212;28;20612;-77
2022/05/25 13:34:42;;;;;;;1.10;0.70;;;20.40;99.90;;;;;;4995040;28;20268;-78
2022/05/25 13:37:13;;;;;;;0.97;0.70;;;20.30;99.90;;;;;;4994565;28;20269;-77
2022/05/25 13:39:43;;;;;;;1.30;0.90;;;20.20;99.90;;;;;;4994522;28;20234;-80
2022/05/25 13:42:15;;;;;;;1.43;0.90;;;20.30;99.90;;;;;;4994493;28;20214;-77
2022/05/25 13:44:47;;;;;;;2.17;0.80;;;20.20;99.90;;;;;;4994578;28;20297;-77
2022/05/25 13:47:20;;;;;;;1.47;0.80;;;20.30;99.90;;;;;;4994363;28;20206;-78
2022/05/25 13:49:51;;;;;;;4.80;1.07;;;20.40;99.90;;;;;;4994185;28;20194;-78
2022/05/25 13:52:23;;;;;;;2.83;0.90;;;20.40;99.90;;;;;;4994321;28;20245;-76
2022/05/25 13:54:54;;;;;;;3.17;0.70;;;20.60;99.90;;;;;;4994067;28;20719;-76
2022/05/25 13:57:31;;;;;;;1.13;0.73;;;20.70;99.90;;;;;;4994073;28;20608;-79
2022/05/25 14:00:10;;;;;;;2.57;0.60;;;20.70;99.90;;;;;;4994108;28;20205;-78
2022/05/25 14:02:43;;;;;;;1.90;0.93;;;20.60;99.90;;;;;;4994494;28;20210;-77
2022/05/25 14:05:35;;;;;;;2.07;0.80;;;20.40;99.90;;;;;;4993686;28;20215;-79
2022/05/25 14:08:12;;;;;;;1.60;0.70;;;20.50;99.90;;;;;;4994142;28;20222;-79
2022/05/25 14:10:58;;;;;;;0.80;0.80;;;20.30;99.90;;;;;;4994059;28;20248;-79
2022/05/25 14:13:34;;;;;;;1.53;0.70;;;20.30;99.90;;;;;;4994363;28;20260;-78
2022/05/25 14:16:05;;;;;;;2.77;1.00;;;20.30;99.90;;;;;;4994123;28;20218;-78
2022/05/25 14:18:44;;;;;;;1.13;0.90;;;20.10;99.90;;;;;;4996012;28;20227;-77
2022/05/25 14:21:25;;;;;;;1.77;0.93;;;20.20;99.90;;;;;;4997493;28;20194;-79
2022/05/25 14:23:55;;;;;;;2.40;1.13;;;19.90;99.90;;;;;;4995417;28;20221;-79
2022/05/25 14:26:26;;;;;;;1.10;0.60;;;19.80;99.90;;;;;;4996957;28;20739;-79
2022/05/25 14:28:56;;;;;;;4.33;1.00;;;19.70;99.90;;;;;;4998671;28;20214;-79
2022/05/25 14:31:25;;;;;;;1.67;0.80;;;19.70;99.90;;;;;;4997701;28;20233;-75
2022/05/25 14:34:03;;;;;;;2.53;0.93;;;19.70;99.90;;;;;;4995690;28;20298;-75
2022/05/25 14:36:33;;;;;;;0.80;0.80;;;19.70;99.90;;;;;;4997840;28;20329;-78
2022/05/25 14:39:03;;;;;;;4.63;1.00;;;19.70;99.90;;;;;;4997275;28;20234;-77
2022/05/25 14:41:44;;;;;;;1.77;1.00;;;19.80;99.90;;;;;;4996905;28;20194;-78
2022/05/25 14:44:36;;;;;;;1.57;1.00;;;19.50;99.90;;;;;;4998734;28;20266;-79
2022/05/25 14:47:11;;;;;;;2.27;0.80;;;19.60;99.90;;;;;;4998311;28;20198;-80
2022/05/25 14:49:40;;;;;;;1.93;0.97;;;19.60;99.90;;;;;;4994855;28;20236;-79
2022/05/25 14:52:17;;;;;;;1.63;0.90;;;19.60;99.90;;;;;;4994172;28;20249;-79
2022/05/25 14:54:48;;;;;;;1.80;0.87;;;19.80;99.90;;;;;;4993707;28;20221;-78
2022/05/25 14:57:18;;;;;;;1.23;0.60;;;19.90;99.90;;;;;;4993423;28;20249;-77
2022/05/25 14:59:50;;;;;;;0.93;0.80;;;20.20;99.90;;;;;;4992867;28;20246;-79
2022/05/25 15:02:25;;;;;;;3.17;1.00;;;20.40;99.90;;;;;;4993081;28;20202;-79
2022/05/25 15:04:53;;;;;;;1.80;1.03;;;20.50;99.90;;;;;;4993140;28;20241;-79
2022/05/25 15:07:24;;;;;;;1.70;0.90;;;20.30;99.90;;;;;;4993548;28;20206;-80
2022/05/25 15:09:56;;;;;;;1.63;1.00;;;20.10;99.90;;;;;;4993211;28;20194;-76
2022/05/25 15:12:30;;;;;;;0.73;0.73;;;20.00;99.90;;;;;;4992770;28;20194;-80
2022/05/25 15:18:31;;;;;;;3.17;0.93;;;20.00;99.90;;;;;;4993068;28;20297;-78
2022/05/25 15:21:03;;;;;;;1.27;0.70;;;20.10;99.90;;;;;;4992810;28;20230;-79
2022/05/25 15:23:57;;;;;;;1.57;1.10;;;20.20;99.90;;;;;;4992635;28;20210;-78
2022/05/25 15:26:31;;;;;;;1.07;0.90;;;20.30;99.90;;;;;;4992706;28;20257;-79
2022/05/25 15:29:26;;;;;;;2.73;0.83;;;20.20;99.90;;;;;;4992508;28;20210;-75
2022/05/25 15:32:01;;;;;;;0.90;0.70;;;20.10;99.90;;;;;;4992412;28;20198;-76
2022/05/25 15:34:29;;;;;;;2.33;0.80;;;19.90;99.90;;;;;;4992798;28;20236;-81
2022/05/25 15:37:13;;;;;;;2.97;1.00;;;19.80;99.90;;;;;;4992485;28;20214;-80
2022/05/25 15:39:47;;;;;;;1.87;0.90;;;19.80;99.90;;;;;;4992975;28;20234;-77
2022/05/25 15:42:36;;;;;;;1.70;0.70;;;19.80;99.90;;;;;;4992383;28;20210;-78
2022/05/25 15:45:05;;;;;;;3.60;0.90;;;19.60;99.90;;;;;;4992645;28;20206;-80
2022/05/25 15:47:33;;;;;;;1.40;0.90;;;19.50;99.90;;;;;;4992504;28;20673;-79
2022/05/25 15:50:02;;;;;;;3.57;1.00;;;19.30;99.90;;;;;;4992186;28;20292;-80
2022/05/25 15:52:30;;;;;;;2.43;1.00;;;19.20;99.90;;;;;;4994921;28;20205;-76
2022/05/25 15:54:58;;;;;;;1.47;0.93;;;19.20;99.90;;;;;;4999383;28;20309;-80
2022/05/25 15:57:26;;;;;;;2.00;1.00;;;19.10;99.90;;;;;;4999225;28;20233;-79
2022/05/25 15:59:56;;;;;;;2.60;1.20;;;19.10;99.90;;;;;;4998627;28;20294;-80
2022/05/25 16:02:25;;;;;;;1.93;1.00;;;19.10;99.90;;;;;;4998746;28;20248;-77
2022/05/25 16:04:53;;;;;;;2.47;0.90;;;18.90;99.90;;;;;;4998328;28;20803;-76
2022/05/25 16:09:11;;;;;;;1.67;1.17;;;19.10;99.90;;;;;;4998373;28;20694;-76
2022/05/25 16:10:09;;;;;;;2.73;1.10;;;19.00;99.90;;;;;;5000339;28;20641;-77
2022/05/25 16:12:38;;;;;;;1.20;0.90;;;19.00;99.90;;;;;;5000600;28;20272;-77
2022/05/25 16:15:09;;;;;;;1.73;1.17;;;18.90;99.90;;;;;;4999875;28;20260;-78
2022/05/25 16:17:37;;;;;;;1.67;1.07;;;19.10;99.90;;;;;;5000286;28;20210;-77
2022/05/25 16:20:06;;;;;;;1.23;1.10;;;18.90;99.90;;;;;;4999402;28;20558;-77
2022/05/25 16:22:39;;;;;;;1.10;1.00;;;18.90;99.90;;;;;;4999453;28;20663;-75
2022/05/25 16:25:09;;;;;;;1.80;1.10;;;18.90;99.90;;;;;;4999331;28;20256;-78
2022/05/25 16:27:37;;;;;;;1.57;1.10;;;18.80;99.90;;;;;;4999604;28;20293;-79
2022/05/25 16:30:08;;;;;;;3.63;1.20;;;18.70;99.90;;;;;;4999038;28;20288;-80
2022/05/25 16:32:36;;;;;;;3.53;1.17;;;18.50;99.90;;;;;;4999147;28;20213;-80
2022/05/25 16:35:05;;;;;;;1.47;1.10;;;18.50;99.90;;;;;;4998953;28;20700;-79
2022/05/25 16:37:34;;;;;;;2.40;0.90;;;18.50;99.90;;;;;;4999480;28;20293;-78
2022/05/25 16:40:02;;;;;;;1.30;1.00;;;18.50;99.90;;;;;;4999220;28;20226;-78
2022/05/25 16:42:30;;;;;;;2.03;0.90;;;18.40;99.90;;;;;;5000437;28;20241;-79
2022/05/25 16:45:00;;;;;;;2.43;0.97;;;18.40;99.90;;;;;;4999995;28;20210;-78
2022/05/25 16:47:30;;;;;;;2.13;0.97;;;18.40;99.90;;;;;;5000481;28;20198;-78
2022/05/25 16:49:59;;;;;;;4.03;1.10;;;18.30;99.90;;;;;;4999393;28;20715;-79
2022/05/25 16:52:27;;;;;;;3.37;1.10;;;18.30;99.90;;;;;;4999179;28;20218;-81
2022/05/25 16:54:56;;;;;;;1.83;1.00;;;18.30;99.90;;;;;;4999728;28;20214;-77
2022/05/25 16:57:24;;;;;;;2.20;0.90;;;18.30;99.90;;;;;;4999368;28;20730;-79
2022/05/25 16:59:54;;;;;;;2.23;1.10;;;18.20;99.90;;;;;;4999012;28;20281;-79
2022/05/25 17:02:22;;;;;;;2.10;1.20;;;18.20;99.90;;;;;;4999590;28;20206;-78
2022/05/25 17:04:52;;;;;;;1.50;1.00;;;18.10;99.90;;;;;;4996012;28;20218;-79
2022/05/25 17:07:20;;;;;;;0.90;0.80;;;18.00;99.90;;;;;;4994128;28;20293;-79
2022/05/25 17:09:48;;;;;;;1.17;1.00;;;17.90;99.90;;;;;;4993486;28;20288;-77
2022/05/25 17:12:17;;;;;;;1.40;1.10;;;17.80;99.90;;;;;;4993480;28;20699;-78
2022/05/25 17:14:46;;;;;;;1.70;1.07;;;17.80;99.90;;;;;;4993724;28;20245;-78
2022/05/25 17:17:14;;;;;;;0.73;0.73;;;17.80;99.90;;;;;;4994131;28;20333;-78
2022/05/25 17:22:38;;;;;;;1.43;0.80;;;17.70;99.90;;;;;;4995227;28;20245;-77
2022/05/25 17:25:07;;;;;;;1.57;1.10;;;17.60;99.90;;;;;;4995464;28;20222;-76
2022/05/25 17:27:36;;;;;;;2.30;0.90;;;17.60;99.90;;;;;;4995309;28;20688;-75
2022/05/25 17:30:06;;;;;;;2.93;1.00;;;17.60;99.90;;;;;;4995431;28;20301;-77
2022/05/25 17:32:34;;;;;;;1.23;0.90;;;17.50;99.90;;;;;;4995489;28;20210;-77
2022/05/25 17:35:04;;;;;;;0.80;0.80;;;17.40;99.90;;;;;;4998321;28;20211;-77
2022/05/25 17:43:05;;;;;;;1.00;0.90;;;17.40;99.90;;;;;;4997725;28;20241;-76
2022/05/25 17:45:33;;;;;;;1.67;1.10;;;17.30;99.90;;;;;;5000618;28;20210;-78
2022/05/25 17:48:02;;;;;;;2.30;0.90;;;17.30;99.90;;;;;;5000975;28;20202;-77
2022/05/25 17:50:33;;;;;;;1.10;1.00;;;17.20;99.90;;;;;;5002826;28;20241;-74
2022/05/25 17:53:02;;;;;;;0.70;0.70;;;17.20;99.90;;;;;;5002213;28;20202;-78
2022/05/25 17:55:32;;;;;;;1.00;0.90;;;17.10;99.90;;;;;;5000133;28;20272;-78
2022/05/25 17:58:00;;;;;;;2.03;1.00;;;17.10;99.90;;;;;;4998383;28;20257;-79